Time;durP1;ratioP1;P1;durP2;ratioP2;P2;SDS_P1;SDS_P2;PMS_P1;PMS_P2;Temp;Humidity;BMP_temperature;BMP_pressure;BME280_temperature;BME280_humidity;BME280_pressure;Samples;Min_cycle;Max_cycle;Signal;HPM_P1;HPM_P2
2024/02/14 00:02:17;;;;;;;11.88;6.13;;;;;;;4.92;100.00;99273.31;5078565;28;20428;-94
2024/02/14 00:04:42;;;;;;;12.40;7.20;;;;;;;4.74;100.00;99274.13;5080290;28;20043;-95
2024/02/14 00:07:09;;;;;;;12.55;7.13;;;;;;;4.85;100.00;99311.09;5080620;28;20039;-93
2024/02/14 00:09:35;;;;;;;17.80;8.38;;;;;;;4.49;100.00;99249.47;5080343;28;20040;-94
2024/02/14 00:12:01;;;;;;;13.57;6.90;;;;;;;4.61;100.00;99264.44;5077018;28;20143;-94
2024/02/14 00:14:27;;;;;;;12.65;6.88;;;;;;;4.82;100.00;99293.50;5080262;28;20067;-93
2024/02/14 00:16:54;;;;;;;13.73;7.30;;;;;;;4.81;100.00;99293.50;5078364;28;20040;-93
2024/02/14 00:19:20;;;;;;;15.45;7.57;;;;;;;4.90;100.00;99306.69;5079139;28;20016;-94
2024/02/14 00:21:46;;;;;;;12.68;7.53;;;;;;;4.89;100.00;99312.84;5079439;28;20378;-93
2024/02/14 00:24:12;;;;;;;15.27;8.82;;;;;;;4.86;100.00;99313.72;5077407;28;20098;-93
2024/02/14 00:26:39;;;;;;;13.05;7.68;;;;;;;4.70;100.00;99275.00;5080519;28;20048;-94
2024/02/14 00:29:05;;;;;;;17.92;8.60;;;;;;;4.81;100.00;99322.47;5080222;28;20047;-94
2024/02/14 00:31:31;;;;;;;13.02;8.05;;;;;;;4.31;100.00;99274.78;5078683;28;20048;-95
2024/02/14 00:33:58;;;;;;;15.98;8.35;;;;;;;4.39;100.00;99259.03;5078586;28;20083;-94
2024/02/14 00:36:24;;;;;;;17.00;7.50;;;;;;;4.49;100.00;99281.94;5079721;28;20086;-94
2024/02/14 00:38:51;;;;;;;13.77;7.68;;;;;;;4.75;100.00;99341.78;5078396;28;20032;-93
2024/02/14 00:41:17;;;;;;;16.48;7.32;;;;;;;4.36;100.00;99290.63;5077228;28;20409;-93
2024/02/14 00:43:43;;;;;;;12.40;7.05;;;;;;;4.35;100.00;99294.13;5078727;28;20044;-94
2024/02/14 00:46:08;;;;;;;12.73;7.05;;;;;;;4.63;100.00;99326.78;5077206;28;20048;-94
2024/02/14 00:48:34;;;;;;;15.57;7.75;;;;;;;4.68;100.00;99353.13;5078266;28;20040;-92
2024/02/14 00:51:02;;;;;;;18.55;7.70;;;;;;;4.35;100.00;99323.09;5078976;28;20028;-93
2024/02/14 00:53:28;;;;;;;13.63;7.18;;;;;;;4.15;100.00;99319.44;5079341;28;20040;-93
2024/02/14 00:55:54;;;;;;;12.02;7.15;;;;;;;4.02;100.00;99300.91;5079831;28;20043;-93
2024/02/14 00:58:20;;;;;;;14.88;8.15;;;;;;;4.03;100.00;99296.53;5078304;28;20042;-94
2024/02/14 01:00:46;;;;;;;12.57;7.28;;;;;;;4.08;100.00;99297.47;5079514;28;20043;-94
2024/02/14 01:03:14;;;;;;;14.60;7.55;;;;;;;4.28;100.00;99322.16;5078672;28;20040;-94
2024/02/14 01:05:40;;;;;;;11.00;7.28;;;;;;;4.28;100.00;99313.41;5078512;28;20036;-93
2024/02/14 01:08:08;;;;;;;14.48;7.63;;;;;;;4.45;100.00;99339.84;5077663;28;20390;-94
2024/02/14 01:10:34;;;;;;;14.75;7.72;;;;;;;4.15;100.00;99296.63;5077564;28;20066;-94
2024/02/14 01:12:59;;;;;;;14.73;8.05;;;;;;;4.23;100.00;99321.25;5078682;28;20032;-93
2024/02/14 01:15:25;;;;;;;12.05;7.47;;;;;;;4.25;100.00;99314.25;5075982;28;20066;-94
2024/02/14 01:17:51;;;;;;;13.82;7.10;;;;;;;4.16;100.00;99303.63;5076965;28;20155;-93
2024/02/14 01:20:18;;;;;;;14.43;7.70;;;;;;;4.46;100.00;99354.75;5079532;28;20405;-94
2024/02/14 01:22:46;;;;;;;12.40;6.75;;;;;;;4.47;100.00;99367.06;5079230;28;20067;-94
2024/02/14 01:25:13;;;;;;;13.15;7.18;;;;;;;4.24;100.00;99338.81;5063538;28;20068;-94
2024/02/14 01:27:40;;;;;;;12.98;6.75;;;;;;;4.21;100.00;99351.97;5062159;28;20086;-94
2024/02/14 01:30:07;;;;;;;11.00;5.97;;;;;;;4.11;100.00;99344.84;5069818;28;20033;-93
2024/02/14 01:32:33;;;;;;;15.85;6.38;;;;;;;3.82;100.00;99302.53;5071770;28;20460;-93
2024/02/14 01:35:00;;;;;;;12.02;6.88;;;;;;;4.04;100.00;99357.06;5067896;28;20064;-95
2024/02/14 01:37:26;;;;;;;10.52;5.70;;;;;;;4.18;100.00;99375.59;5070401;28;20041;-93
2024/02/14 01:39:52;;;;;;;9.57;5.88;;;;;;;3.85;100.00;99313.06;5069323;28;20048;-92
2024/02/14 01:42:20;;;;;;;11.75;6.00;;;;;;;4.03;100.00;99354.44;5066759;28;20036;-94
2024/02/14 01:44:46;;;;;;;11.35;6.05;;;;;;;4.13;100.00;99372.06;5069596;28;20055;-93
2024/02/14 01:47:12;;;;;;;11.60;5.20;;;;;;;3.91;100.00;99345.56;5067841;28;20131;-93
2024/02/14 01:49:38;;;;;;;10.48;4.20;;;;;;;3.97;100.00;99364.88;5070854;28;20038;-92
2024/02/14 01:52:05;;;;;;;11.80;6.18;;;;;;;3.87;100.00;99349.03;5053392;28;20040;-94
2024/02/14 01:54:35;;;;;;;7.75;4.03;;;;;;;4.05;100.00;99386.91;5053724;28;20152;-93
2024/02/14 01:57:01;;;;;;;11.70;5.63;;;;;;;3.64;100.00;99319.00;5058331;28;20059;-94
2024/02/14 01:59:30;;;;;;;10.73;6.20;;;;;;;3.90;100.00;99377.09;5057943;28;20064;-94
2024/02/14 02:01:56;;;;;;;9.50;5.13;;;;;;;4.02;100.00;99398.28;5059468;28;20036;-93
2024/02/14 02:04:21;;;;;;;7.63;4.38;;;;;;;3.90;100.00;99371.84;5060078;28;20054;-94
2024/02/14 02:06:47;;;;;;;10.45;4.80;;;;;;;3.49;100.00;99322.34;5058639;28;20123;-93
2024/02/14 02:09:14;;;;;;;6.25;3.78;;;;;;;3.69;100.00;99360.25;5061926;28;20047;-94
2024/02/14 02:11:48;;;;;;;7.45;4.53;;;;;;;3.39;100.00;99310.00;5055538;28;20555;-94
2024/02/14 02:14:14;;;;;;;8.02;3.85;;;;;;;3.88;100.00;99382.38;5058403;28;20434;-94
2024/02/14 02:16:42;;;;;;;9.38;4.40;;;;;;;3.99;100.00;99392.09;5059240;28;20071;-92
2024/02/14 02:19:09;;;;;;;7.70;4.28;;;;;;;3.91;100.00;99378.91;5053004;28;20037;-93
2024/02/14 02:21:35;;;;;;;9.75;4.78;;;;;;;3.91;100.00;99382.41;5057666;28;20040;-94
2024/02/14 02:24:02;;;;;;;7.55;4.90;;;;;;;3.63;100.00;99346.19;5070235;28;20036;-93
2024/02/14 02:26:28;;;;;;;10.85;5.20;;;;;;;3.92;100.00;99391.16;5094379;28;20043;-93
2024/02/14 02:28:54;;;;;;;9.05;5.10;;;;;;;3.50;100.00;99318.88;5095437;28;20152;-93
2024/02/14 02:31:21;;;;;;;8.70;4.78;;;;;;;3.83;100.00;99381.44;5090320;28;20022;-94
2024/02/14 02:33:47;;;;;;;12.70;6.22;;;;;;;3.43;100.00;99338.97;5075185;28;20139;-93
2024/02/14 02:36:13;;;;;;;9.20;5.72;;;;;;;3.85;100.00;99402.50;5090901;28;20121;-94
2024/02/14 02:38:39;;;;;;;14.63;6.32;;;;;;;3.75;100.00;99376.97;5091602;28;20055;-94
2024/02/14 02:41:06;;;;;;;13.27;5.85;;;;;;;3.76;100.00;99384.00;5093323;28;20048;-96
2024/02/14 02:43:32;;;;;;;11.82;5.63;;;;;;;3.78;100.00;99380.53;5092286;28;20040;-94
2024/02/14 02:45:59;;;;;;;12.13;6.50;;;;;;;3.42;100.00;99328.41;5093876;28;20103;-95
2024/02/14 02:48:25;;;;;;;11.18;5.18;;;;;;;3.68;100.00;99361.13;5091450;28;20046;-93
2024/02/14 02:50:51;;;;;;;13.35;5.65;;;;;;;3.33;100.00;99312.56;5090362;28;20032;-93
2024/02/14 02:53:18;;;;;;;7.85;4.80;;;;;;;3.54;100.00;99369.75;5092526;28;20036;-94
2024/02/14 02:55:44;;;;;;;11.10;5.60;;;;;;;3.62;100.00;99395.28;5090815;28;20043;-93
2024/02/14 02:58:12;;;;;;;11.95;6.28;;;;;;;3.75;100.00;99419.94;5112533;28;20055;-93
2024/02/14 03:00:38;;;;;;;12.13;6.07;;;;;;;3.43;100.00;99351.22;5091200;28;20060;-93
2024/02/14 03:03:08;;;;;;;10.30;5.53;;;;;;;3.72;100.00;99390.09;5094994;28;20036;-93
2024/02/14 03:05:34;;;;;;;9.30;5.40;;;;;;;3.60;100.00;99370.69;5092385;28;20724;-94
2024/02/14 03:08:00;;;;;;;11.70;6.15;;;;;;;3.67;100.00;99398.81;5095008;28;20031;-94
2024/02/14 03:10:26;;;;;;;11.02;5.28;;;;;;;3.74;100.00;99418.19;5089553;28;20035;-94
2024/02/14 03:12:52;;;;;;;10.20;5.68;;;;;;;3.69;100.00;99433.91;5096215;28;20049;-93
2024/02/14 03:15:19;;;;;;;9.48;5.53;;;;;;;3.52;100.00;99414.44;5090062;28;20044;-92
2024/02/14 03:17:46;;;;;;;10.55;6.57;;;;;;;3.67;100.00;99424.25;5091577;28;20544;-93
2024/02/14 03:20:12;;;;;;;12.63;5.68;;;;;;;3.35;100.00;99380.06;5091915;28;20052;-93
2024/02/14 03:22:44;;;;;;;9.45;5.10;;;;;;;3.42;100.00;99389.75;5091625;28;20051;-94
2024/02/14 03:25:14;;;;;;;14.63;6.00;;;;;;;3.42;100.00;99400.28;5089113;28;20546;-94
2024/02/14 03:27:40;;;;;;;9.25;4.43;;;;;;;3.63;100.00;99432.97;5088665;28;20037;-93
2024/02/14 03:30:07;;;;;;;13.82;4.43;;;;;;;3.29;100.00;99372.09;5087187;28;20051;-93
2024/02/14 03:32:34;;;;;;;8.77;4.68;;;;;;;3.46;100.00;99411.72;5093255;28;20028;-93
2024/02/14 03:35:00;;;;;;;10.15;4.75;;;;;;;3.40;100.00;99424.78;5079297;28;20031;-94
2024/02/14 03:37:26;;;;;;;14.68;5.45;;;;;;;3.40;100.00;99430.94;5079042;28;20093;-93
2024/02/14 03:39:52;;;;;;;10.57;5.38;;;;;;;3.34;100.00;99427.34;5079877;28;20138;-93
2024/02/14 03:42:19;;;;;;;13.10;5.15;;;;;;;2.96;100.00;99383.94;5085510;28;20044;-91
2024/02/14 03:44:45;;;;;;;10.15;5.03;;;;;;;3.04;100.00;99428.72;5092956;28;20493;-94
2024/02/14 03:47:13;;;;;;;9.07;4.63;;;;;;;3.29;100.00;99446.56;5082978;28;20070;-92
2024/02/14 03:49:41;;;;;;;13.07;6.38;;;;;;;3.09;100.00;99392.88;5088030;28;20029;-94
2024/02/14 03:52:09;;;;;;;9.95;6.07;;;;;;;3.39;100.00;99417.78;5089340;28;20131;-93
2024/02/14 03:54:35;;;;;;;14.57;6.57;;;;;;;3.55;100.00;99448.63;5083634;28;20131;-94
2024/02/14 03:57:01;;;;;;;16.42;6.00;;;;;;;3.24;100.00;99400.06;5075604;28;20074;-93
2024/02/14 03:59:27;;;;;;;10.75;6.15;;;;;;;3.24;100.00;99413.22;5079769;28;20028;-92
2024/02/14 04:02:04;;;;;;;11.73;6.22;;;;;;;3.42;100.00;99442.34;5087337;28;20036;-91
2024/02/14 04:04:30;;;;;;;12.63;6.30;;;;;;;3.46;100.00;99454.66;5076151;28;20044;-94
2024/02/14 04:07:00;;;;;;;10.55;5.40;;;;;;;3.56;100.00;99462.69;5084682;28;20551;-91
2024/02/14 04:09:26;;;;;;;13.32;6.78;;;;;;;3.39;100.00;99481.75;5084963;28;20177;-94
2024/02/14 04:11:52;;;;;;;13.82;6.93;;;;;;;3.26;100.00;99464.94;5091728;28;20083;-94
2024/02/14 04:14:18;;;;;;;14.10;6.55;;;;;;;2.94;100.00;99382.16;5075772;28;20051;-93
2024/02/14 04:16:44;;;;;;;10.57;6.10;;;;;;;3.13;100.00;99425.34;5083247;28;20039;-93
2024/02/14 04:19:10;;;;;;;11.02;5.70;;;;;;;3.37;100.00;99462.44;5077607;28;20044;-94
2024/02/14 04:21:37;;;;;;;14.10;7.00;;;;;;;3.57;100.00;99485.47;5080319;28;20489;-93
2024/02/14 04:24:06;;;;;;;10.50;4.88;;;;;;;3.29;100.00;99437.78;5080907;28;20501;-94
2024/02/14 04:26:33;;;;;;;11.10;5.20;;;;;;;3.13;100.00;99405.19;5077221;28;20036;-94
2024/02/14 04:28:59;;;;;;;12.30;5.35;;;;;;;3.55;100.00;99479.31;5078597;28;20062;-92
2024/02/14 04:31:26;;;;;;;10.52;4.75;;;;;;;3.40;100.00;99456.34;5076688;28;20028;-93
2024/02/14 04:33:53;;;;;;;8.93;5.25;;;;;;;3.42;100.00;99470.38;5087017;28;20045;-94
2024/02/14 04:36:19;;;;;;;9.95;4.93;;;;;;;3.13;100.00;99449.00;5076963;28;20063;-92
2024/02/14 04:38:47;;;;;;;11.88;5.53;;;;;;;2.96;100.00;99467.13;5077806;28;20405;-93
2024/02/14 04:41:15;;;;;;;11.27;5.97;;;;;;;2.92;100.00;99487.22;5089065;28;20036;-93
2024/02/14 04:43:41;;;;;;;13.55;6.40;;;;;;;2.63;100.00;99444.75;5086085;28;20043;-93
2024/02/14 04:46:08;;;;;;;8.38;4.57;;;;;;;2.45;100.00;99408.56;5078852;28;20040;-93
2024/02/14 04:48:34;;;;;;;10.30;5.20;;;;;;;2.66;100.00;99435.16;5078033;28;20086;-93
2024/02/14 04:51:00;;;;;;;11.48;5.97;;;;;;;2.72;100.00;99428.25;5077152;28;20040;-92
2024/02/14 04:53:26;;;;;;;10.73;5.47;;;;;;;2.75;100.00;99428.28;5085882;28;20101;-93
2024/02/14 04:55:53;;;;;;;11.60;5.75;;;;;;;3.04;100.00;99474.28;5078118;28;20131;-93
2024/02/14 04:58:21;;;;;;;10.07;5.20;;;;;;;2.59;100.00;99398.31;5084423;28;20037;-92
2024/02/14 05:00:47;;;;;;;11.57;5.32;;;;;;;2.90;100.00;99454.78;5080349;28;20048;-93
2024/02/14 05:03:14;;;;;;;9.65;4.60;;;;;;;3.08;100.00;99488.34;5080840;28;20090;-94
2024/02/14 05:05:40;;;;;;;9.25;4.40;;;;;;;2.77;100.00;99416.94;5085285;28;20064;-93
2024/02/14 05:08:07;;;;;;;10.77;5.07;;;;;;;2.93;100.00;99454.84;5076555;28;20046;-93
2024/02/14 05:10:32;;;;;;;9.70;4.70;;;;;;;2.95;100.00;99474.16;5083363;28;20107;-92
2024/02/14 05:12:58;;;;;;;9.93;5.32;;;;;;;2.51;100.00;99402.56;5077951;28;20136;-94
2024/02/14 05:15:26;;;;;;;12.32;4.78;;;;;;;2.63;100.00;99408.88;5080490;28;20546;-92
2024/02/14 05:17:51;;;;;;;12.23;5.40;;;;;;;2.79;100.00;99427.47;5082693;28;20587;-95
2024/02/14 05:20:18;;;;;;;11.57;5.63;;;;;;;2.67;100.00;99404.56;5077389;28;20044;-92
2024/02/14 05:22:44;;;;;;;10.70;4.60;;;;;;;3.03;100.00;99474.22;5077189;28;20032;-93
2024/02/14 05:25:10;;;;;;;9.48;4.72;;;;;;;3.04;100.00;99481.28;5072523;28;20052;-92
2024/02/14 05:27:36;;;;;;;7.97;4.20;;;;;;;2.56;100.00;99414.00;5068786;28;20095;-93
2024/02/14 05:30:06;;;;;;;9.05;4.65;;;;;;;2.59;100.00;99438.56;5069986;28;20389;-92
2024/02/14 05:32:33;;;;;;;9.45;5.15;;;;;;;2.45;100.00;99440.97;5052274;28;20039;-94
2024/02/14 05:35:00;;;;;;;12.95;4.65;;;;;;;2.54;100.00;99477.00;5050684;28;20039;-92
2024/02/14 05:37:27;;;;;;;10.13;4.43;;;;;;;2.63;100.00;99497.28;5063974;28;20049;-93
2024/02/14 05:39:53;;;;;;;9.93;4.40;;;;;;;2.61;100.00;99489.38;5068254;28;20128;-95
2024/02/14 05:42:19;;;;;;;8.68;5.45;;;;;;;2.59;100.00;99480.56;5073042;28;20083;-93
2024/02/14 05:44:45;;;;;;;9.40;4.80;;;;;;;2.32;100.00;99443.38;5070320;28;20478;-94
2024/02/14 05:47:11;;;;;;;10.60;4.50;;;;;;;2.14;100.00;99428.19;5067823;28;20041;-94
2024/02/14 05:49:39;;;;;;;8.32;4.32;;;;;;;2.36;100.00;99440.81;5070631;28;20218;-93
2024/02/14 05:52:06;;;;;;;8.13;4.68;;;;;;;2.41;100.00;99454.91;5074648;28;20044;-92
2024/02/14 05:54:32;;;;;;;9.52;4.93;;;;;;;2.71;100.00;99494.75;5073311;28;20068;-94
2024/02/14 05:56:58;;;;;;;7.18;4.47;;;;;;;2.59;100.00;99475.31;5074491;28;20450;-93
2024/02/14 05:59:24;;;;;;;8.55;4.38;;;;;;;2.28;100.00;99447.69;5072813;28;20046;-94
2024/02/14 06:01:50;;;;;;;9.40;4.47;;;;;;;2.50;100.00;99495.31;5074475;28;20044;-92
2024/02/14 06:04:16;;;;;;;11.95;5.60;;;;;;;2.14;100.00;99444.81;5073877;28;20037;-94
2024/02/14 06:06:43;;;;;;;6.55;4.25;;;;;;;2.50;100.00;99506.69;5056845;28;20114;-92
2024/02/14 06:09:11;;;;;;;12.90;5.18;;;;;;;2.24;100.00;99459.88;5056759;28;20508;-94
2024/02/14 06:11:38;;;;;;;9.20;3.97;;;;;;;2.53;100.00;99511.09;5060806;28;20433;-92
2024/02/14 06:14:04;;;;;;;8.45;4.80;;;;;;;2.47;100.00;99499.66;5077621;28;20037;-92
2024/02/14 06:16:30;;;;;;;11.80;5.53;;;;;;;2.39;100.00;99490.75;5074406;28;20071;-93
2024/02/14 06:18:56;;;;;;;9.27;4.72;;;;;;;2.03;100.00;99456.88;5074979;28;20397;-91
2024/02/14 06:21:22;;;;;;;8.60;5.07;;;;;;;2.11;100.00;99501.63;5076151;28;20041;-93
2024/02/14 06:23:49;;;;;;;9.23;4.82;;;;;;;2.23;100.00;99513.22;5077087;28;20071;-94
2024/02/14 06:26:15;;;;;;;9.45;5.25;;;;;;;2.25;100.00;99471.25;5071049;28;20020;-94
2024/02/14 06:28:41;;;;;;;8.73;5.03;;;;;;;2.29;100.00;99475.69;5073346;28;20041;-93
2024/02/14 06:31:07;;;;;;;8.55;4.50;;;;;;;2.57;100.00;99505.91;5086229;28;20043;-92
2024/02/14 06:33:33;;;;;;;11.95;5.63;;;;;;;2.64;100.00;99513.03;5076306;28;20044;-95
2024/02/14 06:35:59;;;;;;;12.00;4.93;;;;;;;2.54;100.00;99487.50;5077013;28;20060;-93
2024/02/14 06:38:25;;;;;;;11.27;5.07;;;;;;;2.39;100.00;99461.88;5075454;28;20041;-92
2024/02/14 06:40:52;;;;;;;10.10;4.20;;;;;;;2.37;100.00;99444.34;5067735;28;20037;-95
2024/02/14 06:43:19;;;;;;;10.88;5.50;;;;;;;2.59;100.00;99483.19;5074424;28;20131;-93
2024/02/14 06:45:45;;;;;;;9.65;5.07;;;;;;;2.76;100.00;99507.13;5074904;28;20047;-94
2024/02/14 06:48:11;;;;;;;14.52;6.30;;;;;;;2.92;100.00;99502.97;5070468;28;20036;-95
2024/02/14 06:50:38;;;;;;;11.63;5.10;;;;;;;2.70;100.00;99466.75;5073338;28;20127;-93
2024/02/14 06:53:04;;;;;;;9.32;5.68;;;;;;;3.02;100.00;99509.28;5072030;28;20069;-93
2024/02/14 06:55:31;;;;;;;13.82;5.82;;;;;;;3.01;100.00;99511.00;5075672;28;20044;-92
2024/02/14 06:57:59;;;;;;;9.70;5.20;;;;;;;2.97;100.00;99482.94;5075520;28;20052;-94
2024/02/14 07:00:25;;;;;;;14.02;5.70;;;;;;;3.39;100.00;99529.06;5070696;28;20064;-93
2024/02/14 07:02:51;;;;;;;9.57;5.28;;;;;;;3.42;100.00;99507.19;5071156;28;20045;-92
2024/02/14 07:05:17;;;;;;;10.02;5.50;;;;;;;3.66;100.00;99538.19;5067508;28;20041;-93
2024/02/14 07:07:42;;;;;;;11.18;5.80;;;;;;;3.44;100.00;99472.16;5068661;28;20044;-93
2024/02/14 07:10:09;;;;;;;17.13;7.15;;;;;;;3.96;100.00;99535.06;5068517;28;20041;-93
2024/02/14 07:12:36;;;;;;;14.32;6.72;;;;;;;3.97;100.00;99526.31;5072299;28;20042;-94
2024/02/14 07:15:05;;;;;;;14.38;7.70;;;;;;;4.02;100.00;99516.72;5070636;28;20127;-92
2024/02/14 07:17:31;;;;;;;17.35;8.20;;;;;;;4.21;100.00;99533.59;5072896;28;20421;-92
2024/02/14 07:20:03;;;;;;;13.05;6.80;;;;;;;3.78;100.00;99477.84;5075695;28;20033;-93
2024/02/14 07:22:35;;;;;;;19.48;6.72;;;;;;;3.78;100.00;99472.59;5070076;28;20606;-93
2024/02/14 07:25:01;;;;;;;14.35;5.45;;;;;;;3.85;100.00;99470.91;5077794;28;20053;-93
2024/02/14 07:27:27;;;;;;;10.68;5.63;;;;;;;4.35;100.00;99546.03;5081783;28;20055;-95
2024/02/14 07:29:53;;;;;;;10.27;5.25;;;;;;;4.32;100.00;99537.22;5082401;28;20501;-96
2024/02/14 07:32:21;;;;;;;10.77;5.85;;;;;;;4.30;100.00;99517.88;5082058;28;20089;-94
2024/02/14 07:34:47;;;;;;;11.10;5.72;;;;;;;4.52;100.00;99554.97;5081106;28;20035;-92
2024/02/14 07:37:15;;;;;;;20.98;6.25;;;;;;;4.70;100.00;99570.94;5081861;28;20047;-91
2024/02/14 07:39:41;;;;;;;14.05;5.93;;;;;;;4.50;100.00;99523.34;5080243;28;20041;-92
2024/02/14 07:42:07;;;;;;;9.43;5.40;;;;;;;4.84;100.00;99567.56;5080363;28;20039;-93
2024/02/14 07:44:33;;;;;;;12.73;5.22;;;;;;;4.94;100.00;99561.50;5081440;28;20020;-94
2024/02/14 07:46:58;;;;;;;11.57;4.95;;;;;;;4.71;100.00;99517.41;5080053;28;20044;-94
2024/02/14 07:49:26;;;;;;;13.13;5.07;;;;;;;5.08;100.00;99561.63;5078092;28;20044;-94
2024/02/14 07:51:52;;;;;;;11.43;5.57;;;;;;;5.04;100.00;99523.81;5077913;28;20070;-95
2024/02/14 07:54:19;;;;;;;15.07;4.85;;;;;;;5.30;100.00;99534.53;5079212;28;20389;-95
2024/02/14 07:56:45;;;;;;;12.90;6.10;;;;;;;5.29;100.00;99542.41;5078125;28;20105;-93
2024/02/14 07:59:11;;;;;;;9.75;5.63;;;;;;;5.48;100.00;99549.56;5096150;28;20485;-96
2024/02/14 08:01:37;;;;;;;8.27;4.75;;;;;;;5.56;100.00;99510.06;5077082;28;20040;-93
2024/02/14 08:04:04;;;;;;;10.38;5.55;;;;;;;6.00;100.00;99566.59;5078701;28;20036;-92
2024/02/14 08:06:32;;;;;;;9.95;5.32;;;;;;;5.83;100.00;99551.50;5080865;28;20044;-94
2024/02/14 08:09:01;;;;;;;11.50;6.00;;;;;;;5.58;100.00;99562.84;5078091;28;20036;-93
2024/02/14 08:11:27;;;;;;;9.95;4.78;;;;;;;5.77;100.00;99535.66;5078714;28;20048;-93
2024/02/14 08:13:53;;;;;;;8.43;4.90;;;;;;;5.72;100.00;99503.09;5080460;28;20059;-93
2024/02/14 08:16:19;;;;;;;10.23;5.10;;;;;;;6.21;100.00;99560.50;5077441;28;20036;-93
2024/02/14 08:18:45;;;;;;;8.45;4.35;;;;;;;6.38;100.00;99537.66;5078524;28;20101;-95
2024/02/14 08:21:19;;;;;;;8.77;4.47;;;;;;;6.62;100.00;99525.38;5078698;28;20020;-93
2024/02/14 08:23:46;;;;;;;9.63;3.92;;;;;;;6.82;100.00;99513.03;5076599;28;20032;-95
2024/02/14 08:26:12;;;;;;;9.57;4.38;;;;;;;6.92;100.00;99535.09;5087186;28;20051;-93
2024/02/14 08:28:38;;;;;;;10.43;4.75;;;;;;;6.72;100.00;99540.34;5092011;28;20020;-92
2024/02/14 08:31:10;;;;;;;8.68;4.18;;;;;;;6.58;100.00;99546.50;5086981;28;20044;-91
2024/02/14 08:33:36;;;;;;;7.53;4.32;;;;;;;6.77;100.00;99551.81;5092315;28;20043;-91
2024/02/14 08:36:02;;;;;;;9.98;5.10;;;;;;;7.10;100.00;99542.13;5088759;28;20083;-92
2024/02/14 08:38:28;;;;;;;8.50;5.22;;;;;;;7.22;100.00;99518.28;5087767;28;20039;-93
2024/02/14 08:40:55;;;;;;;11.38;6.10;;;;;;;7.50;100.00;99540.28;5090137;28;20113;-91
2024/02/14 08:43:24;;;;;;;12.85;6.32;;;;;;;7.58;100.00;99551.72;5092455;28;20447;-92
2024/02/14 08:45:51;;;;;;;13.88;6.40;;;;;;;7.62;100.00;99520.84;5090266;28;20108;-91
2024/02/14 08:48:17;;;;;;;15.98;7.47;;;;;;;7.68;100.00;99531.44;5091238;28;20076;-93
2024/02/14 08:50:43;;;;;;;14.68;5.82;;;;;;;7.49;100.00;99505.91;5086075;28;20036;-93
2024/02/14 08:53:10;;;;;;;13.63;6.80;;;;;;;8.06;100.00;99563.94;5090111;28;20130;-93
2024/02/14 08:55:37;;;;;;;11.20;5.63;;;;;;;8.21;100.00;99553.28;5089782;28;20044;-94
2024/02/14 08:58:05;;;;;;;11.45;5.65;;;;;;;8.22;100.00;99520.59;5086140;28;20089;-93
2024/02/14 09:00:31;;;;;;;10.32;5.85;;;;;;;7.99;100.00;99497.75;5087830;28;20036;-93
2024/02/14 09:03:00;;;;;;;13.75;6.18;;;;;;;8.43;100.00;99559.38;5090802;28;20024;-94
2024/02/14 09:05:33;;;;;;;14.25;6.13;;;;;;;8.43;100.00;99562.91;5088128;28;20016;-94
2024/02/14 09:08:00;;;;;;;10.73;5.78;;;;;;;8.50;100.00;99542.56;5087339;28;20070;-92
2024/02/14 09:10:26;;;;;;;12.25;6.00;;;;;;;8.32;100.00;99477.25;5086420;28;20072;-94
2024/02/14 09:12:52;;;;;;;12.73;5.93;;;;;;;8.95;100.00;99553.72;5085472;28;20044;-92
2024/02/14 09:15:21;;;;;;;16.58;6.25;;;;;;;9.03;100.00;99559.84;5085513;28;20043;-93
2024/02/14 09:17:47;;;;;;;13.40;5.63;;;;;;;9.05;100.00;99543.91;5091296;28;20043;-93
2024/02/14 09:20:14;;;;;;;12.93;5.85;;;;;;;9.25;100.00;99547.25;5091616;28;20040;-93
2024/02/14 09:22:41;;;;;;;9.95;5.18;;;;;;;9.11;100.00;99522.63;5085482;28;20043;-95
2024/02/14 09:25:09;;;;;;;10.57;5.18;;;;;;;9.23;100.00;99535.78;5087490;28;20051;-93
2024/02/14 09:27:35;;;;;;;11.52;5.22;;;;;;;9.28;100.00;99529.53;5090343;28;20036;-94
2024/02/14 09:30:03;;;;;;;9.38;5.72;;;;;;;9.34;100.00;99510.91;5089996;28;20067;-92
2024/02/14 09:32:30;;;;;;;12.05;6.10;;;;;;;9.61;100.00;99549.59;5089063;28;20042;-94
2024/02/14 09:34:57;;;;;;;11.68;5.47;;;;;;;9.40;100.00;99497.59;5089603;28;20477;-93
2024/02/14 09:37:23;;;;;;;11.60;6.10;;;;;;;9.48;100.00;99556.78;5089904;28;20048;-93
2024/02/14 09:39:49;;;;;;;10.95;5.60;;;;;;;9.65;100.00;99543.34;5089672;28;20036;-93
2024/02/14 09:42:17;;;;;;;13.00;6.30;;;;;;;9.85;100.00;99551.09;5087916;28;20478;-93
2024/02/14 09:44:44;;;;;;;16.13;8.07;;;;;;;9.98;100.00;99554.47;5089851;28;20040;-93
2024/02/14 09:47:10;;;;;;;11.73;6.60;;;;;;;10.11;100.00;99560.53;5101545;28;20218;-92
2024/02/14 09:49:39;;;;;;;15.73;7.63;;;;;;;10.10;100.00;99543.69;5085510;28;20437;-93
2024/02/14 09:52:08;;;;;;;10.90;6.30;;;;;;;10.35;100.00;99568.22;5089272;28;20044;-94
2024/02/14 09:54:34;;;;;;;12.32;6.15;;;;;;;10.23;100.00;99500.09;5088918;28;20474;-93
2024/02/14 09:57:02;;;;;;;16.63;6.65;;;;;;;10.65;100.00;99547.41;5092173;28;20063;-95
2024/02/14 09:59:29;;;;;;;14.15;5.90;;;;;;;10.66;100.00;99543.84;5106590;28;20481;-94
2024/02/14 10:01:55;;;;;;;12.55;6.35;;;;;;;10.35;100.00;99493.75;5087271;28;20031;-93
2024/02/14 10:04:22;;;;;;;14.48;7.35;;;;;;;10.47;100.00;99509.53;5087639;28;20047;-94
2024/02/14 10:06:49;;;;;;;15.10;6.65;;;;;;;10.62;100.00;99544.78;5087241;28;20044;-93
2024/02/14 10:09:19;;;;;;;12.52;6.18;;;;;;;10.69;100.00;99531.38;5090960;28;20065;-95
2024/02/14 10:11:46;;;;;;;11.93;6.57;;;;;;;11.07;100.00;99552.94;5105456;28;20040;-94
2024/02/14 10:14:12;;;;;;;12.20;7.28;;;;;;;10.94;100.00;99520.34;5089440;28;20409;-92
2024/02/14 10:16:39;;;;;;;12.68;6.55;;;;;;;11.27;100.00;99557.94;5089055;28;20378;-95
2024/02/14 10:19:15;;;;;;;17.25;7.15;;;;;;;11.40;100.00;99558.59;5090952;28;20044;-94
2024/02/14 10:21:41;;;;;;;16.10;7.13;;;;;;;11.42;100.00;99535.47;5091567;28;20532;-94
2024/02/14 10:24:10;;;;;;;12.43;6.45;;;;;;;11.54;100.00;99529.94;5088210;28;20127;-94
2024/02/14 10:26:36;;;;;;;12.73;6.88;;;;;;;11.44;100.00;99493.72;5089492;28;20046;-95
2024/02/14 10:29:02;;;;;;;12.20;7.10;;;;;;;11.66;100.00;99529.69;5091033;28;20066;-93
2024/02/14 10:31:28;;;;;;;18.30;7.20;;;;;;;11.47;100.00;99483.00;5090146;28;20032;-93
2024/02/14 10:33:56;;;;;;;15.00;7.47;;;;;;;11.80;100.00;99548.09;5094943;28;20117;-93
2024/02/14 10:36:22;;;;;;;14.18;7.53;;;;;;;11.57;100.00;99519.22;5093742;28;20064;-96
2024/02/14 10:38:50;;;;;;;12.77;7.28;;;;;;;11.71;100.00;99517.16;5082877;28;20043;-94
2024/02/14 10:41:17;;;;;;;23.80;8.52;;;;;;;11.92;100.00;99526.53;5082554;28;20078;-94
2024/02/14 10:43:45;;;;;;;19.52;8.85;;;;;;;11.66;100.00;99497.72;5100699;28;20493;-93
2024/02/14 10:46:19;;;;;;;19.92;8.63;;;;;;;11.66;100.00;99521.69;5093442;28;20143;-94
2024/02/14 10:48:45;;;;;;;15.23;7.97;;;;;;;11.71;100.00;99522.50;5102705;28;20073;-93
2024/02/14 10:51:12;;;;;;;12.57;6.95;;;;;;;11.88;100.00;99518.63;5097077;28;20011;-94
2024/02/14 10:53:45;;;;;;;15.57;7.40;;;;;;;11.79;100.00;99503.69;5098624;28;20036;-93
2024/02/14 10:56:17;;;;;;;14.68;7.85;;;;;;;11.97;100.00;99530.88;5093437;28;20511;-95
2024/02/14 10:58:47;;;;;;;18.92;8.65;;;;;;;11.89;100.00;99513.28;5096975;28;20086;-93
2024/02/14 11:01:14;;;;;;;13.90;6.95;;;;;;;11.91;100.00;99534.56;5100067;28;20564;-93
2024/02/14 11:03:41;;;;;;;13.38;7.30;;;;;;;11.60;100.00;99479.22;5092221;28;20046;-94
2024/02/14 11:06:07;;;;;;;11.80;6.80;;;;;;;11.90;100.00;99507.03;5092828;28;20497;-93
2024/02/14 11:08:35;;;;;;;11.68;6.60;;;;;;;11.85;100.00;99481.38;5099087;28;20093;-94
2024/02/14 11:11:01;;;;;;;14.18;7.38;;;;;;;11.71;100.00;99460.34;5098117;28;20044;-96
2024/02/14 11:13:31;;;;;;;11.85;7.05;;;;;;;11.92;100.00;99493.69;5081930;28;20048;-94
2024/02/14 11:16:00;;;;;;;12.35;7.95;;;;;;;12.04;100.00;99519.22;5089788;28;20134;-95
2024/02/14 11:18:26;;;;;;;13.25;7.53;;;;;;;12.01;100.00;99508.59;5095506;28;20193;-95
2024/02/14 11:20:52;;;;;;;18.70;7.78;;;;;;;11.65;100.00;99445.34;5082279;28;20048;-95
2024/02/14 11:23:22;;;;;;;13.23;7.65;;;;;;;11.81;100.00;99469.88;5102056;28;20170;-94
2024/02/14 11:25:48;;;;;;;;;;;;;;;12.09;100.00;99506.66;5059602;28;20044;-95